sensor_id;sensor_type;location;lat;lon;timestamp;pressure;altitude;pressure_sealevel;temperature;humidity
42591;BME280;28218;53.342;-6.216;2023-02-20T00:02:04;102012.63;;;11.25;100.00
42591;BME280;28218;53.342;-6.216;2023-02-20T00:04:33;102012.63;;;11.25;100.00
42591;BME280;28218;53.342;-6.216;2023-02-20T00:07:01;102014.44;;;11.25;100.00
42591;BME280;28218;53.342;-6.216;2023-02-20T00:09:29;102014.56;;;11.23;100.00
42591;BME280;28218;53.342;-6.216;2023-02-20T00:11:57;101990.97;;;11.22;100.00
42591;BME280;28218;53.342;-6.216;2023-02-20T00:14:25;102012.06;;;11.22;100.00
42591;BME280;28218;53.342;-6.216;2023-02-20T00:16:55;102009.59;;;11.20;100.00
42591;BME280;28218;53.342;-6.216;2023-02-20T00:19:25;102014.03;;;11.20;100.00
42591;BME280;28218;53.342;-6.216;2023-02-20T00:21:53;102005.81;;;11.23;100.00
42591;BME280;28218;53.342;-6.216;2023-02-20T00:24:21;102007.78;;;11.21;100.00
42591;BME280;28218;53.342;-6.216;2023-02-20T00:26:51;102008.44;;;11.23;100.00
42591;BME280;28218;53.342;-6.216;2023-02-20T00:29:21;102007.78;;;11.21;100.00
42591;BME280;28218;53.342;-6.216;2023-02-20T00:31:50;102013.59;;;11.24;100.00
42591;BME280;28218;53.342;-6.216;2023-02-20T00:34:19;102012.06;;;11.22;100.00
42591;BME280;28218;53.342;-6.216;2023-02-20T00:36:49;102002.50;;;11.21;100.00
42591;BME280;28218;53.342;-6.216;2023-02-20T00:39:17;101999.16;;;11.19;100.00
42591;BME280;28218;53.342;-6.216;2023-02-20T00:41:46;102004.44;;;11.19;100.00
42591;BME280;28218;53.342;-6.216;2023-02-20T00:44:15;102006.13;;;11.20;100.00
42591;BME280;28218;53.342;-6.216;2023-02-20T00:46:43;102004.31;;;11.20;100.00
42591;BME280;28218;53.342;-6.216;2023-02-20T00:49:11;102007.78;;;11.21;100.00
42591;BME280;28218;53.342;-6.216;2023-02-20T00:51:40;102001.13;;;11.17;100.00
42591;BME280;28218;53.342;-6.216;2023-02-20T00:54:09;102005.41;;;11.18;100.00
42591;BME280;28218;53.342;-6.216;2023-02-20T00:56:37;101995.97;;;11.15;100.00
42591;BME280;28218;53.342;-6.216;2023-02-20T00:59:05;102000.41;;;11.15;100.00
42591;BME280;28218;53.342;-6.216;2023-02-20T01:01:34;102003.03;;;11.15;100.00
42591;BME280;28218;53.342;-6.216;2023-02-20T01:04:02;102000.69;;;11.12;100.00
42591;BME280;28218;53.342;-6.216;2023-02-20T01:06:30;101995.97;;;11.15;100.00
42591;BME280;28218;53.342;-6.216;2023-02-20T01:08:58;101991.38;;;11.17;100.00
42591;BME280;28218;53.342;-6.216;2023-02-20T01:11:28;101991.38;;;11.17;100.00
42591;BME280;28218;53.342;-6.216;2023-02-20T01:13:56;101979.31;;;11.15;100.00
42591;BME280;28218;53.342;-6.216;2023-02-20T01:16:24;101984.56;;;11.15;100.00
42591;BME280;28218;53.342;-6.216;2023-02-20T01:18:52;101982.78;;;11.15;100.00
42591;BME280;28218;53.342;-6.216;2023-02-20T01:21:21;101977.63;;;11.14;100.00
42591;BME280;28218;53.342;-6.216;2023-02-20T01:23:49;101978.47;;;11.14;100.00
42591;BME280;28218;53.342;-6.216;2023-02-20T01:26:17;101974.16;;;11.13;100.00
42591;BME280;28218;53.342;-6.216;2023-02-20T01:28:47;101955.56;;;11.15;100.00
42591;BME280;28218;53.342;-6.216;2023-02-20T01:31:15;101948.78;;;11.12;100.00
42591;BME280;28218;53.342;-6.216;2023-02-20T01:33:44;101948.78;;;11.12;100.00
42591;BME280;28218;53.342;-6.216;2023-02-20T01:36:13;101967.25;;;11.12;100.00
42591;BME280;28218;53.342;-6.216;2023-02-20T01:38:41;101970.72;;;11.13;100.00
42591;BME280;28218;53.342;-6.216;2023-02-20T01:41:10;101965.16;;;11.16;100.00
42591;BME280;28218;53.342;-6.216;2023-02-20T01:43:39;101977.22;;;11.18;100.00
42591;BME280;28218;53.342;-6.216;2023-02-20T01:46:43;101969.84;;;11.22;100.00
42591;BME280;28218;53.342;-6.216;2023-02-20T01:49:21;101960.97;;;11.23;100.00
42591;BME280;28218;53.342;-6.216;2023-02-20T01:51:54;101957.22;;;11.25;100.00
42591;BME280;28218;53.342;-6.216;2023-02-20T01:54:25;101955.41;;;11.26;100.00
42591;BME280;28218;53.342;-6.216;2023-02-20T01:56:56;101964.44;;;11.23;100.00
42591;BME280;28218;53.342;-6.216;2023-02-20T01:59:28;101959.31;;;11.22;100.00
42591;BME280;28218;53.342;-6.216;2023-02-20T02:01:58;101956.81;;;11.20;100.00
42591;BME280;28218;53.342;-6.216;2023-02-20T02:04:27;101966.25;;;11.23;100.00
42591;BME280;28218;53.342;-6.216;2023-02-20T02:06:56;101952.06;;;11.24;100.00
42591;BME280;28218;53.342;-6.216;2023-02-20T02:09:34;101945.44;;;11.20;100.00
42591;BME280;28218;53.342;-6.216;2023-02-20T02:12:04;101956.00;;;11.20;100.00
42591;BME280;28218;53.342;-6.216;2023-02-20T02:14:32;101958.63;;;11.20;100.00
42591;BME280;28218;53.342;-6.216;2023-02-20T02:17:16;101951.53;;;11.20;100.00
42591;BME280;28218;53.342;-6.216;2023-02-20T02:22:55;101948.34;;;11.17;100.00
42591;BME280;28218;53.342;-6.216;2023-02-20T02:25:40;101950.84;;;11.18;100.00
42591;BME280;28218;53.342;-6.216;2023-02-20T02:28:45;101942.91;;;11.18;100.00
42591;BME280;28218;53.342;-6.216;2023-02-20T02:31:37;101952.38;;;11.21;100.00
42591;BME280;28218;53.342;-6.216;2023-02-20T02:34:43;101951.81;;;11.17;100.00
42591;BME280;28218;53.342;-6.216;2023-02-20T02:37:23;101929.72;;;11.18;100.00
42591;BME280;28218;53.342;-6.216;2023-02-20T02:40:00;101928.91;;;11.18;100.00
42591;BME280;28218;53.342;-6.216;2023-02-20T02:42:38;101925.59;;;11.16;100.00
42591;BME280;28218;53.342;-6.216;2023-02-20T02:45:11;101937.81;;;11.17;100.00
42591;BME280;28218;53.342;-6.216;2023-02-20T02:47:48;101938.47;;;11.19;100.00
42591;BME280;28218;53.342;-6.216;2023-02-20T02:50:20;101938.47;;;11.19;100.00
42591;BME280;28218;53.342;-6.216;2023-02-20T02:52:52;101931.28;;;11.21;100.00
42591;BME280;28218;53.342;-6.216;2023-02-20T02:55:24;101930.56;;;11.19;100.00
42591;BME280;28218;53.342;-6.216;2023-02-20T02:57:52;101951.41;;;11.22;100.00
42591;BME280;28218;53.342;-6.216;2023-02-20T03:00:24;101947.78;;;11.23;100.00
42591;BME280;28218;53.342;-6.216;2023-02-20T03:02:57;101946.66;;;11.25;100.00
42591;BME280;28218;53.342;-6.216;2023-02-20T03:05:32;101953.44;;;11.28;100.00
42591;BME280;28218;53.342;-6.216;2023-02-20T03:08:11;101954.16;;;11.30;100.00
42591;BME280;28218;53.342;-6.216;2023-02-20T03:10:48;101948.06;;;11.30;100.00
42591;BME280;28218;53.342;-6.216;2023-02-20T03:13:20;101942.34;;;11.34;100.00
42591;BME280;28218;53.342;-6.216;2023-02-20T03:16:02;101943.19;;;11.35;100.00
42591;BME280;28218;53.342;-6.216;2023-02-20T03:18:35;101931.47;;;11.37;100.00
42591;BME280;28218;53.342;-6.216;2023-02-20T03:21:10;101934.84;;;11.39;100.00
42591;BME280;28218;53.342;-6.216;2023-02-20T03:23:45;101941.75;;;11.40;100.00
42591;BME280;28218;53.342;-6.216;2023-02-20T03:26:18;101932.88;;;11.41;100.00
42591;BME280;28218;53.342;-6.216;2023-02-20T03:28:51;101931.06;;;11.42;100.00
42591;BME280;28218;53.342;-6.216;2023-02-20T03:31:26;101932.72;;;11.43;100.00
42591;BME280;28218;53.342;-6.216;2023-02-20T03:34:00;101934.25;;;11.45;100.00
42591;BME280;28218;53.342;-6.216;2023-02-20T03:36:50;101932.28;;;11.47;100.00
42591;BME280;28218;53.342;-6.216;2023-02-20T03:39:43;101930.78;;;11.45;100.00
42591;BME280;28218;53.342;-6.216;2023-02-20T03:42:33;101936.22;;;11.43;100.00
42591;BME280;28218;53.342;-6.216;2023-02-20T03:45:22;101929.78;;;11.46;100.00
42591;BME280;28218;53.342;-6.216;2023-02-20T03:47:58;101927.88;;;11.48;100.00
42591;BME280;28218;53.342;-6.216;2023-02-20T03:50:27;101921.72;;;11.47;100.00
42591;BME280;28218;53.342;-6.216;2023-02-20T03:53:13;101920.78;;;11.48;100.00
42591;BME280;28218;53.342;-6.216;2023-02-20T03:55:45;101919.78;;;11.49;100.00
42591;BME280;28218;53.342;-6.216;2023-02-20T03:58:15;101915.63;;;11.47;100.00
42591;BME280;28218;53.342;-6.216;2023-02-20T04:00:47;101920.38;;;11.43;100.00
42591;BME280;28218;53.342;-6.216;2023-02-20T04:03:20;101924.66;;;11.44;100.00
42591;BME280;28218;53.342;-6.216;2023-02-20T04:05:49;101886.06;;;11.43;100.00
42591;BME280;28218;53.342;-6.216;2023-02-20T04:08:21;101904.53;;;11.43;100.00
42591;BME280;28218;53.342;-6.216;2023-02-20T04:10:55;101899.53;;;11.40;100.00
42591;BME280;28218;53.342;-6.216;2023-02-20T04:13:25;101895.91;;;11.41;100.00
42591;BME280;28218;53.342;-6.216;2023-02-20T04:15:55;101899.53;;;11.40;100.00
42591;BME280;28218;53.342;-6.216;2023-02-20T04:18:26;101888.72;;;11.43;100.00
42591;BME280;28218;53.342;-6.216;2023-02-20T04:20:58;101893.28;;;11.41;100.00
42591;BME280;28218;53.342;-6.216;2023-02-20T04:23:29;101891.47;;;11.42;100.00
42591;BME280;28218;53.342;-6.216;2023-02-20T04:26:03;101887.84;;;11.43;100.00
42591;BME280;28218;53.342;-6.216;2023-02-20T04:28:33;101896.31;;;11.46;100.00
42591;BME280;28218;53.342;-6.216;2023-02-20T04:31:01;101899.94;;;11.45;100.00
42591;BME280;28218;53.342;-6.216;2023-02-20T04:33:29;101904.22;;;11.46;100.00
42591;BME280;28218;53.342;-6.216;2023-02-20T04:35:57;101903.41;;;11.46;100.00
42591;BME280;28218;53.342;-6.216;2023-02-20T04:38:26;101905.38;;;11.44;100.00
42591;BME280;28218;53.342;-6.216;2023-02-20T04:40:54;101918.41;;;11.45;100.00
42591;BME280;28218;53.342;-6.216;2023-02-20T04:43:24;101905.06;;;11.47;100.00
42591;BME280;28218;53.342;-6.216;2023-02-20T04:45:52;101903.94;;;11.49;100.00
42591;BME280;28218;53.342;-6.216;2023-02-20T04:48:20;101909.06;;;11.51;100.00
42591;BME280;28218;53.342;-6.216;2023-02-20T04:50:48;101903.25;;;11.47;100.00
42591;BME280;28218;53.342;-6.216;2023-02-20T04:53:16;101905.59;;;11.50;100.00
42591;BME280;28218;53.342;-6.216;2023-02-20T04:55:45;101902.13;;;11.50;100.00
42591;BME280;28218;53.342;-6.216;2023-02-20T04:58:13;101896.59;;;11.53;100.00
42591;BME280;28218;53.342;-6.216;2023-02-20T05:00:44;101912.53;;;11.51;100.00
42591;BME280;28218;53.342;-6.216;2023-02-20T05:03:12;101910.06;;;11.50;100.00
42591;BME280;28218;53.342;-6.216;2023-02-20T05:05:40;101925.06;;;11.49;100.00
42591;BME280;28218;53.342;-6.216;2023-02-20T05:08:08;101910.88;;;11.50;100.00
42591;BME280;28218;53.342;-6.216;2023-02-20T05:10:37;101908.41;;;11.49;100.00
42591;BME280;28218;53.342;-6.216;2023-02-20T05:13:05;101911.72;;;11.51;100.00
42591;BME280;28218;53.342;-6.216;2023-02-20T05:15:33;101896.19;;;11.48;100.00
42591;BME280;28218;53.342;-6.216;2023-02-20T05:18:03;101899.50;;;11.50;100.00
42591;BME280;28218;53.342;-6.216;2023-02-20T05:20:31;101902.81;;;11.52;100.00
42591;BME280;28218;53.342;-6.216;2023-02-20T05:23:17;101900.47;;;11.49;100.00
42591;BME280;28218;53.342;-6.216;2023-02-20T05:25:45;101901.00;;;11.52;100.00
42591;BME280;28218;53.342;-6.216;2023-02-20T05:28:13;101889.09;;;11.48;100.00
42591;BME280;28218;53.342;-6.216;2023-02-20T05:30:41;101889.22;;;11.47;100.00
42591;BME280;28218;53.342;-6.216;2023-02-20T05:33:11;101897.00;;;11.48;100.00
42591;BME280;28218;53.342;-6.216;2023-02-20T05:35:40;101886.47;;;11.48;100.00
42591;BME280;28218;53.342;-6.216;2023-02-20T05:38:08;101897.00;;;11.48;100.00
42591;BME280;28218;53.342;-6.216;2023-02-20T05:40:36;101890.75;;;11.49;100.00
42591;BME280;28218;53.342;-6.216;2023-02-20T05:43:04;101888.94;;;11.50;100.00
42591;BME280;28218;53.342;-6.216;2023-02-20T05:45:32;101903.63;;;11.52;100.00
42591;BME280;28218;53.342;-6.216;2023-02-20T05:48:01;101900.88;;;11.54;100.00
42591;BME280;28218;53.342;-6.216;2023-02-20T05:50:30;101906.97;;;11.55;100.00
42591;BME280;28218;53.342;-6.216;2023-02-20T05:52:58;101905.31;;;11.54;100.00
42591;BME280;28218;53.342;-6.216;2023-02-20T05:55:26;101913.91;;;11.56;100.00
42591;BME280;28218;53.342;-6.216;2023-02-20T05:57:56;101900.72;;;11.56;100.00
42591;BME280;28218;53.342;-6.216;2023-02-20T06:00:25;101900.03;;;11.54;100.00
42591;BME280;28218;53.342;-6.216;2023-02-20T06:02:53;101900.44;;;11.59;100.00
42591;BME280;28218;53.342;-6.216;2023-02-20T06:05:21;101906.41;;;11.61;100.00
42591;BME280;28218;53.342;-6.216;2023-02-20T06:07:51;101911.00;;;11.59;100.00
42591;BME280;28218;53.342;-6.216;2023-02-20T06:10:20;101905.84;;;11.57;100.00
42591;BME280;28218;53.342;-6.216;2023-02-20T06:12:48;101908.34;;;11.59;100.00
42591;BME280;28218;53.342;-6.216;2023-02-20T06:15:16;101904.91;;;11.58;100.00
42591;BME280;28218;53.342;-6.216;2023-02-20T06:17:45;101890.00;;;11.57;100.00
42591;BME280;28218;53.342;-6.216;2023-02-20T06:20:13;101900.56;;;11.57;100.00
42591;BME280;28218;53.342;-6.216;2023-02-20T06:22:41;101893.63;;;11.56;100.00
42591;BME280;28218;53.342;-6.216;2023-02-20T06:25:11;101898.78;;;11.58;100.00
42591;BME280;28218;53.342;-6.216;2023-02-20T06:27:40;101885.88;;;11.55;100.00
42591;BME280;28218;53.342;-6.216;2023-02-20T06:30:09;101890.00;;;11.57;100.00
42591;BME280;28218;53.342;-6.216;2023-02-20T06:32:37;101881.41;;;11.55;100.00
42591;BME280;28218;53.342;-6.216;2023-02-20T06:35:06;101875.31;;;11.55;100.00
42591;BME280;28218;53.342;-6.216;2023-02-20T06:37:35;101877.66;;;11.58;100.00
42591;BME280;28218;53.342;-6.216;2023-02-20T06:40:04;101880.00;;;11.61;100.00
42591;BME280;28218;53.342;-6.216;2023-02-20T06:42:34;101890.56;;;11.61;100.00
42591;BME280;28218;53.342;-6.216;2023-02-20T06:45:02;101894.34;;;11.58;100.00
42591;BME280;28218;53.342;-6.216;2023-02-20T06:47:30;101896.16;;;11.58;100.00
42591;BME280;28218;53.342;-6.216;2023-02-20T06:49:59;101892.81;;;11.56;100.00
42591;BME280;28218;53.342;-6.216;2023-02-20T06:52:27;101891.81;;;11.57;100.00
42591;BME280;28218;53.342;-6.216;2023-02-20T06:54:55;101885.59;;;11.58;100.00
42591;BME280;28218;53.342;-6.216;2023-02-20T06:57:24;101891.00;;;11.56;100.00
42591;BME280;28218;53.342;-6.216;2023-02-20T06:59:54;101884.88;;;11.56;100.00
42591;BME280;28218;53.342;-6.216;2023-02-20T07:02:22;101883.91;;;11.57;100.00
42591;BME280;28218;53.342;-6.216;2023-02-20T07:04:50;101879.75;;;11.54;100.00
42591;BME280;28218;53.342;-6.216;2023-02-20T07:07:18;101890.88;;;11.58;100.00
42591;BME280;28218;53.342;-6.216;2023-02-20T07:09:47;101900.44;;;11.59;100.00
42591;BME280;28218;53.342;-6.216;2023-02-20T07:12:15;101894.19;;;11.60;100.00
42591;BME280;28218;53.342;-6.216;2023-02-20T07:14:43;101890.56;;;11.61;100.00
42591;BME280;28218;53.342;-6.216;2023-02-20T07:17:13;101886.94;;;11.62;100.00
42591;BME280;28218;53.342;-6.216;2023-02-20T07:19:41;101889.56;;;11.62;100.00
42591;BME280;28218;53.342;-6.216;2023-02-20T07:22:09;101894.19;;;11.60;100.00
42591;BME280;28218;53.342;-6.216;2023-02-20T07:24:37;101885.59;;;11.58;100.00
42591;BME280;28218;53.342;-6.216;2023-02-20T07:27:08;101894.34;;;11.58;100.00
42591;BME280;28218;53.342;-6.216;2023-02-20T07:29:36;101891.53;;;11.60;100.00
42591;BME280;28218;53.342;-6.216;2023-02-20T07:32:07;101882.94;;;11.58;100.00
42591;BME280;28218;53.342;-6.216;2023-02-20T07:34:37;101897.81;;;11.59;100.00
42591;BME280;28218;53.342;-6.216;2023-02-20T07:37:05;101901.28;;;11.59;100.00
42591;BME280;28218;53.342;-6.216;2023-02-20T07:39:33;101900.28;;;11.60;100.00
42591;BME280;28218;53.342;-6.216;2023-02-20T07:42:01;101896.16;;;11.58;100.00
42591;BME280;28218;53.342;-6.216;2023-02-20T07:44:30;101898.63;;;11.59;100.00
42591;BME280;28218;53.342;-6.216;2023-02-20T07:46:58;101901.13;;;11.61;100.00
42591;BME280;28218;53.342;-6.216;2023-02-20T07:49:27;101890.44;;;11.62;100.00
42591;BME280;28218;53.342;-6.216;2023-02-20T07:51:56;101890.13;;;11.65;100.00
42591;BME280;28218;53.342;-6.216;2023-02-20T07:54:25;101889.13;;;11.66;100.00
42591;BME280;28218;53.342;-6.216;2023-02-20T07:56:54;101884.00;;;11.65;100.00
42591;BME280;28218;53.342;-6.216;2023-02-20T07:59:22;101889.13;;;11.66;100.00
42591;BME280;28218;53.342;-6.216;2023-02-20T08:01:51;101872.19;;;11.69;100.00
42591;BME280;28218;53.342;-6.216;2023-02-20T08:04:19;101867.88;;;11.68;100.00
42591;BME280;28218;53.342;-6.216;2023-02-20T08:06:47;101869.53;;;11.69;100.00
42591;BME280;28218;53.342;-6.216;2023-02-20T08:09:17;101872.03;;;11.70;100.00
42591;BME280;28218;53.342;-6.216;2023-02-20T08:11:45;101875.50;;;11.71;100.00
42591;BME280;28218;53.342;-6.216;2023-02-20T08:14:13;101882.31;;;11.73;100.00
42591;BME280;28218;53.342;-6.216;2023-02-20T08:16:42;101885.31;;;11.78;100.00
42591;BME280;28218;53.342;-6.216;2023-02-20T08:19:10;101894.78;;;11.81;100.00
42591;BME280;28218;53.342;-6.216;2023-02-20T08:21:38;101884.75;;;11.85;100.00
42591;BME280;28218;53.342;-6.216;2023-02-20T08:24:06;101891.41;;;11.89;100.00
42591;BME280;28218;53.342;-6.216;2023-02-20T08:26:41;101896.41;;;11.92;100.00
42591;BME280;28218;53.342;-6.216;2023-02-20T08:29:10;101895.97;;;11.96;100.00
42591;BME280;28218;53.342;-6.216;2023-02-20T08:31:38;101895.66;;;11.99;100.00
42591;BME280;28218;53.342;-6.216;2023-02-20T08:34:06;101893.41;;;12.05;100.00
42591;BME280;28218;53.342;-6.216;2023-02-20T08:36:35;101889.63;;;12.07;100.00
42591;BME280;28218;53.342;-6.216;2023-02-20T08:39:03;101884.34;;;12.07;100.00
42591;BME280;28218;53.342;-6.216;2023-02-20T08:41:31;101890.00;;;12.12;100.00
42591;BME280;28218;53.342;-6.216;2023-02-20T08:44:01;101877.06;;;12.19;100.00
42591;BME280;28218;53.342;-6.216;2023-02-20T08:46:29;101902.16;;;12.23;100.00
42591;BME280;28218;53.342;-6.216;2023-02-20T08:48:57;101896.59;;;12.26;100.00
42591;BME280;28218;53.342;-6.216;2023-02-20T08:51:25;101887.69;;;12.27;100.00
42591;BME280;28218;53.342;-6.216;2023-02-20T08:53:53;101881.13;;;12.31;100.00
42591;BME280;28218;53.342;-6.216;2023-02-20T08:56:22;101887.91;;;12.34;100.00
42591;BME280;28218;53.342;-6.216;2023-02-20T08:58:50;101883.13;;;12.37;100.00
42591;BME280;28218;53.342;-6.216;2023-02-20T09:01:20;101888.84;;;12.42;100.00
42591;BME280;28218;53.342;-6.216;2023-02-20T09:03:48;101883.38;;;12.44;100.00
42591;BME280;28218;53.342;-6.216;2023-02-20T09:06:17;101885.88;;;12.45;100.00
42591;BME280;28218;53.342;-6.216;2023-02-20T09:08:45;101897.63;;;12.51;100.00
42591;BME280;28218;53.342;-6.216;2023-02-20T09:11:14;101895.38;;;12.56;100.00
42591;BME280;28218;53.342;-6.216;2023-02-20T09:13:44;101895.53;;;12.54;100.00
42591;BME280;28218;53.342;-6.216;2023-02-20T09:16:13;101894.53;;;12.56;100.00
42591;BME280;28218;53.342;-6.216;2023-02-20T09:18:44;101891.75;;;12.57;100.00
42591;BME280;28218;53.342;-6.216;2023-02-20T09:21:14;101899.25;;;12.62;100.00
42591;BME280;28218;53.342;-6.216;2023-02-20T09:23:43;101890.97;;;12.65;100.00
42591;BME280;28218;53.342;-6.216;2023-02-20T09:26:12;101895.59;;;12.63;100.00
42591;BME280;28218;53.342;-6.216;2023-02-20T09:28:40;101885.19;;;12.61;100.00
42591;BME280;28218;53.342;-6.216;2023-02-20T09:31:09;101888.66;;;12.62;100.00
42591;BME280;28218;53.342;-6.216;2023-02-20T09:33:37;101893.78;;;12.63;100.00
42591;BME280;28218;53.342;-6.216;2023-02-20T09:36:09;101887.66;;;12.63;100.00
42591;BME280;28218;53.342;-6.216;2023-02-20T09:38:38;101880.72;;;12.62;100.00
42591;BME280;28218;53.342;-6.216;2023-02-20T09:41:14;101895.78;;;12.61;100.00
42591;BME280;28218;53.342;-6.216;2023-02-20T09:43:54;101890.03;;;12.66;100.00
42591;BME280;28218;53.342;-6.216;2023-02-20T09:46:28;101886.38;;;12.67;100.00
42591;BME280;28218;53.342;-6.216;2023-02-20T09:49:03;101872.84;;;12.70;100.00
42591;BME280;28218;53.342;-6.216;2023-02-20T09:51:36;101876.53;;;12.77;100.00
42591;BME280;28218;53.342;-6.216;2023-02-20T09:54:08;101872.75;;;12.79;100.00
42591;BME280;28218;53.342;-6.216;2023-02-20T09:56:41;101867.38;;;12.89;100.00
42591;BME280;28218;53.342;-6.216;2023-02-20T09:59:14;101869.22;;;12.97;100.00
42591;BME280;28218;53.342;-6.216;2023-02-20T10:01:51;101878.72;;;13.08;100.00
42591;BME280;28218;53.342;-6.216;2023-02-20T10:04:22;101854.44;;;13.12;100.00
42591;BME280;28218;53.342;-6.216;2023-02-20T10:07:01;101854.59;;;13.11;100.00
42591;BME280;28218;53.342;-6.216;2023-02-20T10:09:33;101853.78;;;13.10;100.00
42591;BME280;28218;53.342;-6.216;2023-02-20T10:12:08;101833.47;;;13.19;100.00
42591;BME280;28218;53.342;-6.216;2023-02-20T10:15:00;101848.91;;;13.23;100.00
42591;BME280;28218;53.342;-6.216;2023-02-20T10:17:39;101835.22;;;13.28;100.00
42591;BME280;28218;53.342;-6.216;2023-02-20T10:20:13;101827.56;;;13.25;100.00
42591;BME280;28218;53.342;-6.216;2023-02-20T10:22:52;101817.50;;;13.28;100.00
42591;BME280;28218;53.342;-6.216;2023-02-20T10:25:27;101818.69;;;13.34;100.00
42591;BME280;28218;53.342;-6.216;2023-02-20T10:28:02;101842.81;;;13.31;100.00
42591;BME280;28218;53.342;-6.216;2023-02-20T10:30:35;101820.69;;;13.32;100.00
42591;BME280;28218;53.342;-6.216;2023-02-20T10:33:17;101827.94;;;13.30;100.00
42591;BME280;28218;53.342;-6.216;2023-02-20T10:35:52;101837.22;;;13.34;100.00
42591;BME280;28218;53.342;-6.216;2023-02-20T10:38:28;101839.56;;;13.37;100.00
42591;BME280;28218;53.342;-6.216;2023-02-20T10:41:03;101836.38;;;13.34;100.00
42591;BME280;28218;53.342;-6.216;2023-02-20T10:43:40;101835.38;;;13.35;100.00
42591;BME280;28218;53.342;-6.216;2023-02-20T10:46:16;101846.66;;;13.37;100.00
42591;BME280;28218;53.342;-6.216;2023-02-20T10:48:46;101846.97;;;13.34;100.00
42591;BME280;28218;53.342;-6.216;2023-02-20T10:51:17;101838.88;;;13.35;100.00
42591;BME280;28218;53.342;-6.216;2023-02-20T10:53:54;101846.81;;;13.35;100.00
42591;BME280;28218;53.342;-6.216;2023-02-20T10:56:30;101857.72;;;13.32;100.00
42591;BME280;28218;53.342;-6.216;2023-02-20T10:59:03;101860.03;;;13.35;100.00
42591;BME280;28218;53.342;-6.216;2023-02-20T11:01:35;101855.94;;;13.41;100.00
42591;BME280;28218;53.342;-6.216;2023-02-20T11:04:08;101860.41;;;13.40;100.00
42591;BME280;28218;53.342;-6.216;2023-02-20T11:06:40;101869.53;;;13.46;100.00
42591;BME280;28218;53.342;-6.216;2023-02-20T11:09:11;101873.50;;;13.42;100.00
42591;BME280;28218;53.342;-6.216;2023-02-20T11:11:41;101855.63;;;13.44;100.00
42591;BME280;28218;53.342;-6.216;2023-02-20T11:14:12;101861.09;;;13.42;100.00
42591;BME280;28218;53.342;-6.216;2023-02-20T11:16:44;101851.16;;;13.44;100.00
42591;BME280;28218;53.342;-6.216;2023-02-20T11:19:18;101854.16;;;13.49;100.00
42591;BME280;28218;53.342;-6.216;2023-02-20T11:21:49;101860.78;;;13.53;100.00
42591;BME280;28218;53.342;-6.216;2023-02-20T11:24:25;101843.28;;;13.61;100.00
42591;BME280;28218;53.342;-6.216;2023-02-20T11:26:57;101852.56;;;13.73;100.00
42591;BME280;28218;53.342;-6.216;2023-02-20T11:29:29;101852.28;;;13.84;100.00
42591;BME280;28218;53.342;-6.216;2023-02-20T11:32:17;101859.41;;;13.92;100.00
42591;BME280;28218;53.342;-6.216;2023-02-20T11:35:03;101856.09;;;13.90;100.00
42591;BME280;28218;53.342;-6.216;2023-02-20T11:37:31;101852.97;;;13.94;100.00
42591;BME280;28218;53.342;-6.216;2023-02-20T11:40:16;101867.22;;;14.01;100.00
42591;BME280;28218;53.342;-6.216;2023-02-20T11:42:48;101849.00;;;13.98;100.00
42591;BME280;28218;53.342;-6.216;2023-02-20T11:45:22;101856.75;;;13.92;100.00
42591;BME280;28218;53.342;-6.216;2023-02-20T11:48:10;101850.81;;;13.90;100.00
42591;BME280;28218;53.342;-6.216;2023-02-20T11:50:41;101856.41;;;13.87;100.00
42591;BME280;28218;53.342;-6.216;2023-02-20T11:53:18;101871.47;;;13.78;100.00
42591;BME280;28218;53.342;-6.216;2023-02-20T11:55:49;101863.84;;;13.75;100.00
42591;BME280;28218;53.342;-6.216;2023-02-20T11:58:33;101883.22;;;13.75;100.00
42591;BME280;28218;53.342;-6.216;2023-02-20T12:01:01;101869.47;;;13.72;100.00
42591;BME280;28218;53.342;-6.216;2023-02-20T12:03:31;101879.75;;;13.75;100.00
42591;BME280;28218;53.342;-6.216;2023-02-20T12:06:03;101875.28;;;13.75;100.00
42591;BME280;28218;53.342;-6.216;2023-02-20T12:08:52;101864.38;;;13.78;100.00
42591;BME280;28218;53.342;-6.216;2023-02-20T12:11:25;101868.66;;;13.79;100.00
42591;BME280;28218;53.342;-6.216;2023-02-20T12:13:56;101874.13;;;13.86;100.00
42591;BME280;28218;53.342;-6.216;2023-02-20T12:16:31;101879.47;;;13.94;100.00
42591;BME280;28218;53.342;-6.216;2023-02-20T12:19:10;101879.81;;;13.99;100.00
42591;BME280;28218;53.342;-6.216;2023-02-20T12:21:58;101876.50;;;14.05;100.00
42591;BME280;28218;53.342;-6.216;2023-02-20T12:24:48;101879.81;;;14.16;100.00
42591;BME280;28218;53.342;-6.216;2023-02-20T12:27:38;101879.69;;;14.17;100.00
42591;BME280;28218;53.342;-6.216;2023-02-20T12:30:19;101876.69;;;14.12;100.00
42591;BME280;28218;53.342;-6.216;2023-02-20T12:33:01;101870.88;;;14.09;100.00
42591;BME280;28218;53.342;-6.216;2023-02-20T12:35:41;101885.78;;;14.10;100.00
42591;BME280;28218;53.342;-6.216;2023-02-20T12:38:29;101875.72;;;14.21;100.00
42591;BME280;28218;53.342;-6.216;2023-02-20T12:44:22;101881.84;;;14.38;100.00
42591;BME280;28218;53.342;-6.216;2023-02-20T12:46:59;101873.25;;;14.36;100.00
42591;BME280;28218;53.342;-6.216;2023-02-20T12:49:44;101874.06;;;14.37;100.00
42591;BME280;28218;53.342;-6.216;2023-02-20T12:52:29;101865.13;;;14.38;100.00
42591;BME280;28218;53.342;-6.216;2023-02-20T12:55:08;101875.41;;;14.41;100.00
42591;BME280;28218;53.342;-6.216;2023-02-20T12:57:48;101865.63;;;14.41;100.00
42591;BME280;28218;53.342;-6.216;2023-02-20T13:00:27;101855.00;;;14.41;100.00
42591;BME280;28218;53.342;-6.216;2023-02-20T13:03:02;101869.59;;;14.45;100.00